Phoenix — JL6690 — position and weather

sailwx.info

Track history (hours):
 
Tides and Currents Weather Stations Pressure Air Temp Water Temp Dewpoint Dewpoint Depression Visibility Wind Speed Wind Dir Waves Ship Positions

Phoenix

Last reported at 2018-Apr-24 16:26 UTC. Time now 2018-Apr-24 16:37 UTC.
Position N 34°23' E 138°04'.

Length 160 m; draft 7 m.

Type: Cargo ship. MMSI: 431501732.

Date/timePositionNaut miles runAvg speedWind from/ knotsBaromVisibWave heightAir tempDewpointWater temp
2018-Apr-24 16:26N 34°23' E 138°04'6215.9
2018-Apr-24 12:32N 34°05' E 136°53'518.3
2018-Apr-24 12:17N 34°03' E 136°48'518.5
2018-Apr-24 12:00N 33°60' E 136°43'7116.6
2018-Apr-24 07:43N 33°31' E 135°24'818.9
2018-Apr-24 07:16N 33°36' E 135°17'519.1
2018-Apr-24 07:00N 33°40' E 135°12'918.8
2018-Apr-24 06:30N 33°47' E 135°05'918.2
2018-Apr-24 06:00N 33°55' E 135°00'917.9
2018-Apr-24 05:30N 34°04' E 134°58'1019.1
2018-Apr-24 05:01N 34°13' E 134°58'918.8
2018-Apr-24 04:31N 34°23' E 134°60'917.1
2018-Apr-24 04:01N 34°28' E 135°08'1019.2
2018-Apr-24 03:31N 34°35' E 135°16'610.9
2018-Apr-24 03:00N 34°41' E 135°13'0 0.0
2018-Apr-24 02:30N 34°41' E 135°13'0 0.0
2018-Apr-24 02:00N 34°41' E 135°13'0 0.0
2018-Apr-24 01:30N 34°41' E 135°13'0 0.0
2018-Apr-24 01:00N 34°41' E 135°13'0 0.0
2018-Apr-24 00:30N 34°41' E 135°13'0 0.0
2018-Apr-24 00:00N 34°41' E 135°13'0 0.0
2018-Apr-23 23:30N 34°41' E 135°13'3 6.7
2018-Apr-23 23:01N 34°38' E 135°16'917.4
2018-Apr-23 22:30N 34°35' E 135°06'917.7
2018-Apr-23 22:01N 34°36' E 134°56'917.4
2018-Apr-23 21:30N 34°32' E 134°46'917.5
2018-Apr-23 21:00N 34°28' E 134°37'918.3
2018-Apr-23 20:31N 34°25' E 134°26'1019.5
2018-Apr-23 20:00N 34°24' E 134°15'917.5
2018-Apr-23 19:30N 34°26' E 134°04'2112.8
2018-Apr-23 17:52N 34°18' E 133°41'4915.8
2018-Apr-23 14:44N 34°00' E 132°45'417.9
2018-Apr-23 14:30N 33°57' E 132°42'917.7
2018-Apr-23 13:59N 33°51' E 132°34'1417.8
2018-Apr-23 13:12N 33°44' E 132°19'418.1
2018-Apr-23 13:00N 33°43' E 132°15'1417.1
2018-Apr-23 12:13N 33°43' E 131°59'417.1
2018-Apr-23 12:00N 33°43' E 131°54'917.6
2018-Apr-23 11:30N 33°45' E 131°44'917.7
2018-Apr-23 11:00N 33°47' E 131°34'917.8
2018-Apr-23 10:30N 33°48' E 131°23'918.0
2018-Apr-23 10:00N 33°49' E 131°13'816.6
2018-Apr-23 09:30N 33°48' E 131°03'3 5.2
2018-Apr-23 08:59N 33°46' E 131°00'0 0.0
2018-Apr-23 08:29N 33°46' E 131°00'0 0.0
2018-Apr-23 07:59N 33°46' E 131°00'0 0.0
2018-Apr-23 07:29N 33°46' E 131°00'0 0.0
2018-Apr-23 06:59N 33°46' E 131°00'0 0.0
2018-Apr-23 06:29N 33°46' E 131°00'0 0.0
2018-Apr-23 05:59N 33°46' E 131°00'0 0.0
2018-Apr-23 05:26N 33°46' E 131°00'0 0.0
2018-Apr-23 04:59N 33°46' E 131°00'0 0.0
2018-Apr-23 04:29N 33°46' E 131°00'0 0.0
2018-Apr-23 03:59N 33°46' E 131°00'0 0.0
2018-Apr-23 03:29N 33°46' E 131°00'0 0.0
2018-Apr-23 02:59N 33°46' E 131°00'0 0.0
2018-Apr-23 02:29N 33°46' E 131°00'0 0.0
2018-Apr-23 01:59N 33°46' E 131°00'0 0.0
2018-Apr-23 01:29N 33°46' E 131°00'0 0.0
2018-Apr-23 00:59N 33°46' E 131°00'0 0.0
2018-Apr-23 00:31N 33°46' E 131°00'0 0.0
2018-Apr-23 00:00N 33°46' E 131°00'2 4.7
2018-Apr-22 23:31N 33°48' E 131°02'917.2
2018-Apr-22 23:00N 33°49' E 131°12'1019.6
2018-Apr-22 22:30N 33°48' E 131°24'919.4
2018-Apr-22 22:01N 33°47' E 131°36'918.8
2018-Apr-22 21:30N 33°45' E 131°47'1018.6
2018-Apr-22 20:59N 33°44' E 131°58'918.2
2018-Apr-22 20:30N 33°42' E 132°09'815.7
2018-Apr-22 19:59N 33°45' E 132°18'918.4
2018-Apr-22 19:29N 33°48' E 132°28'919.0
2018-Apr-22 19:01N 33°54' E 132°36'918.2
2018-Apr-22 18:30N 34°00' E 132°44'5015.5
2018-Apr-22 15:17N 34°20' E 133°40'520.0
2018-Apr-22 15:00N 34°22' E 133°46'815.0
2018-Apr-22 14:29N 34°24' E 133°55'814.2
2018-Apr-22 13:56N 34°27' E 134°04'818.0
2018-Apr-22 13:31N 34°25' E 134°13'1020.6
2018-Apr-22 13:01N 34°26' E 134°25'1020.2
2018-Apr-22 12:31N 34°30' E 134°36'1020.2
2018-Apr-22 12:00N 34°34' E 134°48'1019.3
2018-Apr-22 11:30N 34°37' E 134°59'815.4
2018-Apr-22 11:01N 34°36' E 135°08'714.5
2018-Apr-22 10:30N 34°39' E 135°16'2 4.2
2018-Apr-22 09:59N 34°41' E 135°13'0 0.0
2018-Apr-22 09:30N 34°41' E 135°13'0 0.0
2018-Apr-22 09:00N 34°41' E 135°13'0 0.0
2018-Apr-22 08:30N 34°41' E 135°13'0 0.0
2018-Apr-22 08:00N 34°41' E 135°13'0 0.0
2018-Apr-22 07:30N 34°41' E 135°13'0 0.0
2018-Apr-22 07:00N 34°41' E 135°13'0 0.9
2018-Apr-22 06:30N 34°40' E 135°14'612.1
2018-Apr-22 06:00N 34°34' E 135°14'1020.0
2018-Apr-22 05:30N 34°26' E 135°07'1020.3
2018-Apr-22 05:00N 34°18' E 134°60'1019.8
2018-Apr-22 04:30N 34°08' E 134°60'1020.6
2018-Apr-22 04:00N 33°58' E 135°02'1019.5
2018-Apr-22 03:30N 33°49' E 135°06'6017.4
2018-Apr-22 00:04N 33°36' E 136°16'920.5
2018-Apr-21 23:39N 33°39' E 136°26'720.5
2018-Apr-21 23:19N 33°41' E 136°33'720.4
2018-Apr-21 23:00N 33°43' E 136°41'1120.7
2018-Apr-21 22:29N 33°47' E 136°52'1020.7
2018-Apr-21 22:00N 33°51' E 137°04'1020.8
2018-Apr-21 21:30N 33°56' E 137°15'1220.8
2018-Apr-21 20:57N 33°60' E 137°28'920.2
2018-Apr-21 20:30N 34°04' E 137°38'1119.8
2018-Apr-21 19:58N 34°08' E 137°49'920.1
2018-Apr-21 19:30N 34°12' E 137°60'1019.8
2018-Apr-21 19:00N 34°15' E 138°11'1019.3
2018-Apr-21 18:30N 34°19' E 138°22'919.1
2018-Apr-21 18:00N 34°23' E 138°32'919.0
2018-Apr-21 17:30N 34°27' E 138°43'1019.2
2018-Apr-21 17:00N 34°31' E 138°53'918.0
2018-Apr-21 16:31N 34°36' E 139°02'918.3
2018-Apr-21 15:59N 34°43' E 139°10'918.0
2018-Apr-21 15:30N 34°49' E 139°17'918.1
2018-Apr-21 15:00N 34°56' E 139°25'918.7
2018-Apr-21 14:31N 35°01' E 139°34'1019.2
2018-Apr-21 14:00N 35°07' E 139°43'815.5
2018-Apr-21 13:30N 35°15' E 139°46'611.6
2018-Apr-21 13:00N 35°19' E 139°42'2 3.8
2018-Apr-21 12:28N 35°19' E 139°39'0 0.0
2018-Apr-21 11:58N 35°19' E 139°39'0 0.0
2018-Apr-21 11:28N 35°19' E 139°39'0 0.0
2018-Apr-21 10:58N 35°19' E 139°39'0 0.0
2018-Apr-21 10:28N 35°19' E 139°39'0 0.0
2018-Apr-21 09:58N 35°19' E 139°39'0 0.0
2018-Apr-21 09:28N 35°19' E 139°39'0 0.0
2018-Apr-21 08:58N 35°19' E 139°39'0 0.0
2018-Apr-21 08:28N 35°19' E 139°39'0 0.0
2018-Apr-21 07:58N 35°19' E 139°39'0 0.0
2018-Apr-21 07:28N 35°19' E 139°39'0 0.0
2018-Apr-21 06:58N 35°19' E 139°39'0 0.0
2018-Apr-21 06:28N 35°19' E 139°39'0 0.0
2018-Apr-21 06:00N 35°19' E 139°39'0 0.1
2018-Apr-21 05:31N 35°19' E 139°39'5 9.3
2018-Apr-21 05:00N 35°18' E 139°45'713.7
2018-Apr-21 04:31N 35°11' E 139°47'1019.2
2018-Apr-21 04:00N 35°03' E 139°41'1121.0
2018-Apr-21 03:30N 34°57' E 139°31'1122.1
2018-Apr-21 03:00N 34°50' E 139°20'1122.2
2018-Apr-21 02:30N 34°42' E 139°10'1422.2
2018-Apr-21 01:53N 34°33' E 138°58'1220.9
2018-Apr-21 01:20N 34°27' E 138°46'821.0
2018-Apr-21 00:57N 34°24' E 138°37'1020.4
2018-Apr-21 00:28N 34°20' E 138°26'920.1
2018-Apr-21 00:00N 34°17' E 138°15'1019.9
2018-Apr-20 23:31N 34°13' E 138°04'1119.8
2018-Apr-20 22:57N 34°08' E 137°52'5219.6
2018-Apr-20 20:19N 33°48' E 136°55'719.3
2018-Apr-20 19:56N 33°46' E 136°47'919.4
2018-Apr-20 19:30N 33°42' E 136°38'8319.5
2018-Apr-20 15:14N 33°11' E 135°05'520.5
2018-Apr-20 15:00N 33°09' E 134°60'1120.5
2018-Apr-20 14:28N 33°06' E 134°47'1020.8
2018-Apr-20 14:00N 33°03' E 134°36'11819.0
2018-Apr-20 07:49N 32°55' E 132°16'821.2
2018-Apr-20 07:25N 33°03' E 132°13'1021.5
2018-Apr-20 06:57N 33°11' E 132°06'1022.5
2018-Apr-20 06:29N 33°20' E 131°58'1021.5
2018-Apr-20 06:00N 33°29' E 131°52'1121.6
2018-Apr-20 05:30N 33°38' E 131°46'1121.1
2018-Apr-20 05:00N 33°43' E 131°34'1020.5
2018-Apr-20 04:30N 33°46' E 131°23'1020.1
2018-Apr-20 04:00N 33°48' E 131°11'815.7
2018-Apr-20 03:30N 33°48' E 131°01'2 2.9
2018-Apr-20 02:55N 33°46' E 131°00'0 0.0
2018-Apr-20 02:28N 33°46' E 131°00'0 0.0
2018-Apr-20 01:58N 33°46' E 131°00'0 0.0
2018-Apr-20 01:28N 33°46' E 131°00'0 0.0
2018-Apr-20 00:58N 33°46' E 131°00'0 0.0
2018-Apr-20 00:28N 33°46' E 131°00'0 0.0
2018-Apr-19 23:55N 33°46' E 131°00'0 0.0
2018-Apr-19 23:28N 33°46' E 131°00'0 0.0
2018-Apr-19 22:58N 33°46' E 131°00'0 0.0
2018-Apr-19 22:25N 33°46' E 131°00'0 0.0
2018-Apr-19 21:58N 33°46' E 131°00'0 0.0
2018-Apr-19 21:28N 33°46' E 131°00'0 0.0
2018-Apr-19 21:00N 33°46' E 131°00'0 0.0
2018-Apr-19 20:30N 33°46' E 131°00'2 5.0
2018-Apr-19 20:01N 33°48' E 131°02'816.7
2018-Apr-19 19:31N 33°49' E 131°12'1019.7
2018-Apr-19 19:00N 33°48' E 131°24'1019.5
2018-Apr-19 18:31N 33°46' E 131°36'1019.3
2018-Apr-19 18:01N 33°45' E 131°47'1019.8
2018-Apr-19 17:30N 33°44' E 131°59'1019.5
2018-Apr-19 17:00N 33°43' E 132°11'1120.4
2018-Apr-19 16:28N 33°46' E 132°23'919.9
2018-Apr-19 16:01N 33°51' E 132°33'918.8
2018-Apr-19 15:31N 33°57' E 132°41'917.8
2018-Apr-19 15:00N 34°04' E 132°48'5815.8
2018-Apr-19 11:20N 34°24' E 133°54'513.8
2018-Apr-19 10:59N 34°26' E 133°60'816.7
2018-Apr-19 10:30N 34°26' E 134°09'1019.7
2018-Apr-19 10:00N 34°25' E 134°21'1020.1
2018-Apr-19 09:31N 34°29' E 134°32'1019.7
2018-Apr-19 09:01N 34°33' E 134°44'918.5
2018-Apr-19 08:30N 34°36' E 134°54'612.4
2018-Apr-19 08:00N 34°37' E 135°02'511.0
2018-Apr-19 07:30N 34°37' E 135°08'612.9
2018-Apr-19 07:00N 34°40' E 135°15'2 3.6
2018-Apr-19 06:28N 34°41' E 135°13'0 0.0
2018-Apr-19 05:58N 34°41' E 135°13'0 0.0
2018-Apr-19 05:30N 34°41' E 135°13'0 0.0
2018-Apr-19 05:00N 34°41' E 135°13'0 0.0
2018-Apr-19 04:30N 34°41' E 135°13'0 0.0
2018-Apr-19 04:00N 34°41' E 135°13'2 4.3
2018-Apr-19 03:30N 34°39' E 135°16'917.8
2018-Apr-19 03:00N 34°31' E 135°12'1019.6
2018-Apr-19 02:30N 34°24' E 135°04'1019.6
2018-Apr-19 02:01N 34°15' E 134°59'1020.3
2018-Apr-19 01:31N 34°05' E 135°00'1020.2
2018-Apr-19 01:01N 33°55' E 135°02'1019.0
2018-Apr-19 00:30N 33°47' E 135°09'6717.6
2018-Apr-18 20:42N 33°40' E 136°29'521.4
2018-Apr-18 20:28N 33°42' E 136°35'8520.4
2018-Apr-18 16:19N 34°15' E 138°08'919.9
2018-Apr-18 15:51N 34°19' E 138°18'919.7
2018-Apr-18 15:22N 34°22' E 138°29'819.5
2018-Apr-18 14:57N 34°26' E 138°38'919.9
2018-Apr-18 14:29N 34°29' E 138°48'1020.2
2018-Apr-18 14:00N 34°34' E 138°59'1019.2
2018-Apr-18 13:30N 34°41' E 139°07'1019.7
2018-Apr-18 13:00N 34°48' E 139°15'1019.6
2018-Apr-18 12:30N 34°55' E 139°23'1019.3
2018-Apr-18 12:01N 35°01' E 139°33'1020.1
2018-Apr-18 11:31N 35°07' E 139°42'816.3
2018-Apr-18 11:00N 35°14' E 139°46'612.4
2018-Apr-18 10:30N 35°19' E 139°41'2 3.5
2018-Apr-18 09:58N 35°19' E 139°39'0 0.0
2018-Apr-18 09:28N 35°19' E 139°39'0 0.0
2018-Apr-18 08:58N 35°19' E 139°39'0 0.0
2018-Apr-18 08:28N 35°19' E 139°39'0 0.0
2018-Apr-18 07:58N 35°19' E 139°39'0 0.0
2018-Apr-18 07:28N 35°19' E 139°39'0 0.0
2018-Apr-18 06:58N 35°19' E 139°39'0 0.0
2018-Apr-18 06:28N 35°19' E 139°39'0 0.0
2018-Apr-18 05:58N 35°19' E 139°39'0 0.0
2018-Apr-18 05:28N 35°19' E 139°39'0 0.0
2018-Apr-18 04:58N 35°19' E 139°39'0 0.0
2018-Apr-18 04:28N 35°19' E 139°39'0 0.0
2018-Apr-18 04:01N 35°19' E 139°39'0 0.2
2018-Apr-18 03:30N 35°19' E 139°39'510.9
2018-Apr-18 03:00N 35°17' E 139°45'714.2
2018-Apr-18 02:30N 35°10' E 139°47'917.9
2018-Apr-18 02:00N 35°03' E 139°40'1019.5
2018-Apr-18 01:30N 34°57' E 139°30'1019.5
2018-Apr-18 01:00N 34°51' E 139°21'919.2
2018-Apr-18 00:30N 34°45' E 139°12'1618.3
2018-Apr-17 23:39N 34°34' E 138°58'317.8
2018-Apr-17 23:30N 34°32' E 138°56'1118.0
2018-Apr-17 22:53N 34°27' E 138°44'718.5
2018-Apr-17 22:30N 34°25' E 138°36'1018.2
2018-Apr-17 21:57N 34°21' E 138°25'817.4
2018-Apr-17 21:29N 34°18' E 138°16'14917.8
2018-Apr-17 13:04N 33°33' E 135°24'919.9
2018-Apr-17 12:38N 33°40' E 135°16'820.2
2018-Apr-17 12:14N 33°46' E 135°10'520.7
2018-Apr-17 12:01N 33°49' E 135°06'1020.0
2018-Apr-17 11:30N 33°58' E 135°00'1019.9
2018-Apr-17 11:00N 34°08' E 134°58'1019.4
2018-Apr-17 10:31N 34°17' E 134°58'918.6
2018-Apr-17 10:01N 34°25' E 135°04'1020.5
2018-Apr-17 09:31N 34°32' E 135°13'815.0
2018-Apr-17 09:00N 34°40' E 135°15'2 3.5
2018-Apr-17 08:28N 34°41' E 135°13'0 0.0
2018-Apr-17 07:58N 34°41' E 135°13'0 0.0
2018-Apr-17 07:28N 34°41' E 135°13'0 0.0
2018-Apr-17 06:58N 34°41' E 135°13'0 0.0
2018-Apr-17 06:29N 34°41' E 135°13'0 0.0
2018-Apr-17 05:58N 34°41' E 135°13'0 0.0
2018-Apr-17 05:29N 34°41' E 135°13'0 0.0
2018-Apr-17 04:59N 34°41' E 135°13'0 0.0
2018-Apr-17 04:28N 34°41' E 135°13'0 0.0
2018-Apr-17 03:58N 34°41' E 135°13'0 0.0
2018-Apr-17 03:29N 34°41' E 135°13'0 0.0
2018-Apr-17 03:00N 34°41' E 135°13'3 6.2
2018-Apr-17 02:31N 34°38' E 135°16'918.4
2018-Apr-17 02:01N 34°35' E 135°06'917.5
2018-Apr-17 01:30N 34°35' E 134°55'918.8
2018-Apr-17 01:00N 34°32' E 134°45'1019.6
2018-Apr-17 00:30N 34°28' E 134°34'1019.7
2018-Apr-17 00:00N 34°24' E 134°23'918.3
2018-Apr-16 23:30N 34°25' E 134°11'2614.5
2018-Apr-16 21:42N 34°18' E 133°41'4416.2
2018-Apr-16 19:00N 34°05' E 132°50'918.4
2018-Apr-16 18:30N 33°58' E 132°44'917.7
2018-Apr-16 17:59N 33°52' E 132°36'918.3
2018-Apr-16 17:30N 33°47' E 132°27'918.6
2018-Apr-16 16:59N 33°43' E 132°16'918.9
2018-Apr-16 16:30N 33°41' E 132°05'1020.0
2018-Apr-16 16:00N 33°44' E 131°54'1020.9
2018-Apr-16 15:30N 33°46' E 131°41'1121.1
2018-Apr-16 15:00N 33°48' E 131°29'1020.8
2018-Apr-16 14:30N 33°49' E 131°17'1019.3
2018-Apr-16 14:00N 33°49' E 131°05'5 9.0
2018-Apr-16 13:29N 33°46' E 131°00'0 0.0
2018-Apr-16 12:59N 33°46' E 131°00'0 0.0
2018-Apr-16 12:26N 33°46' E 131°00'0 0.0
2018-Apr-16 11:59N 33°46' E 131°00'0 0.0
2018-Apr-16 11:29N 33°46' E 131°00'0 0.0
2018-Apr-16 10:59N 33°46' E 131°00'0 0.0
2018-Apr-16 10:29N 33°46' E 131°00'0 0.0
2018-Apr-16 09:59N 33°46' E 131°00'0 0.0
2018-Apr-16 09:29N 33°46' E 131°00'0 0.0
2018-Apr-16 08:59N 33°46' E 131°00'0 0.0
2018-Apr-16 08:29N 33°46' E 131°00'0 0.0
2018-Apr-16 07:59N 33°46' E 131°00'0 0.0
2018-Apr-16 07:29N 33°46' E 131°00'0 0.0
2018-Apr-16 06:56N 33°46' E 131°00'0 0.0
2018-Apr-16 06:26N 33°46' E 131°00'0 0.0
2018-Apr-16 06:00N 33°46' E 131°00'0 0.0
2018-Apr-16 05:30N 33°46' E 131°00'2 3.8
2018-Apr-16 05:00N 33°48' E 131°02'816.3
2018-Apr-16 04:30N 33°49' E 131°11'1019.7
2018-Apr-16 04:00N 33°48' E 131°23'1019.5
2018-Apr-16 03:30N 33°47' E 131°35'1019.5
2018-Apr-16 03:00N 33°46' E 131°46'1019.9
2018-Apr-16 02:30N 33°44' E 131°58'1120.0
2018-Apr-16 01:57N 33°43' E 132°12'920.7
2018-Apr-16 01:29N 33°46' E 132°22'1020.4
2018-Apr-16 01:00N 33°50' E 132°33'919.2
2018-Apr-16 00:30N 33°57' E 132°41'918.6
2018-Apr-16 00:00N 34°04' E 132°48'6716.6
2018-Apr-15 19:57N 34°27' E 134°05'919.7
2018-Apr-15 19:30N 34°25' E 134°15'1019.7
2018-Apr-15 19:01N 34°27' E 134°26'1020.2
2018-Apr-15 18:30N 34°30' E 134°38'1019.5
2018-Apr-15 18:00N 34°34' E 134°49'917.9
2018-Apr-15 17:30N 34°38' E 134°59'816.7
2018-Apr-15 17:00N 34°37' E 135°09'611.8
2018-Apr-15 16:30N 34°40' E 135°15'1 2.9
2018-Apr-15 16:00N 34°41' E 135°13'0 0.0
2018-Apr-15 15:30N 34°41' E 135°13'0 0.0
2018-Apr-15 15:00N 34°41' E 135°13'0 0.0
2018-Apr-15 14:30N 34°41' E 135°13'0 0.0
2018-Apr-15 14:00N 34°41' E 135°13'0 0.0
2018-Apr-15 13:30N 34°41' E 135°13'0 0.0
2018-Apr-15 13:00N 34°41' E 135°13'0 0.0
2018-Apr-15 12:30N 34°41' E 135°13'1 1.4
2018-Apr-15 12:00N 34°40' E 135°14'713.6
2018-Apr-15 11:30N 34°34' E 135°14'1019.2
2018-Apr-15 11:00N 34°26' E 135°07'918.6
2018-Apr-15 10:31N 34°19' E 134°60'918.9
2018-Apr-15 10:00N 34°10' E 134°59'919.0
2018-Apr-15 09:30N 34°00' E 134°60'918.5
2018-Apr-15 09:00N 33°51' E 135°01'1018.3
2018-Apr-15 08:29N 33°43' E 135°08'1018.2
2018-Apr-15 07:55N 33°36' E 135°17'718.3
2018-Apr-15 07:30N 33°31' E 135°24'4915.8
2018-Apr-15 04:23N 33°47' E 136°20'2417.8
2018-Apr-15 03:01N 34°01' E 136°44'117.0
2018-Apr-15 02:58N 34°01' E 136°45'3516.0
2018-Apr-15 00:48N 34°18' E 137°21'514.7
2018-Apr-15 00:28N 34°20' E 137°27'914.2
2018-Apr-14 23:48N 34°24' E 137°38'17 9.3
2018-Apr-14 21:57N 34°31' E 137°56'714.1
2018-Apr-14 21:27N 34°32' E 138°05'815.5
2018-Apr-14 20:57N 34°31' E 138°14'716.3
2018-Apr-14 20:29N 34°32' E 138°23'916.6
2018-Apr-14 19:59N 34°32' E 138°33'817.1
2018-Apr-14 19:30N 34°32' E 138°43'917.5
2018-Apr-14 19:00N 34°32' E 138°54'816.0
2018-Apr-14 18:30N 34°37' E 139°02'1017.4
2018-Apr-14 17:54N 34°45' E 139°09'717.2
2018-Apr-14 17:30N 34°50' E 139°15'816.6
2018-Apr-14 17:00N 34°55' E 139°23'917.2
2018-Apr-14 16:29N 35°00' E 139°32'  
Track history (hours):
 
Tides and Currents Weather Stations Pressure Air Temp Water Temp Dewpoint Dewpoint Depression Visibility Wind Speed Wind Dir Waves Ship Positions

Phoenix

Last reported at 2018-Apr-24 16:26 UTC. Time now 2018-Apr-24 16:37 UTC.
Position N 34°23' E 138°04'.

Length 160 m; draft 7 m.

Type: Cargo ship. MMSI: 431501732.

Date/timePositionNaut miles runAvg speedWind from/ knotsBaromVisibWave heightAir tempDewpointWater temp
2018-Apr-24 16:26N 34°23' E 138°04'6215.9
2018-Apr-24 12:32N 34°05' E 136°53'518.3
2018-Apr-24 12:17N 34°03' E 136°48'518.5
2018-Apr-24 12:00N 33°60' E 136°43'7116.6
2018-Apr-24 07:43N 33°31' E 135°24'818.9
2018-Apr-24 07:16N 33°36' E 135°17'519.1
2018-Apr-24 07:00N 33°40' E 135°12'918.8
2018-Apr-24 06:30N 33°47' E 135°05'918.2
2018-Apr-24 06:00N 33°55' E 135°00'917.9
2018-Apr-24 05:30N 34°04' E 134°58'1019.1
2018-Apr-24 05:01N 34°13' E 134°58'918.8
2018-Apr-24 04:31N 34°23' E 134°60'917.1
2018-Apr-24 04:01N 34°28' E 135°08'1019.2
2018-Apr-24 03:31N 34°35' E 135°16'610.9
2018-Apr-24 03:00N 34°41' E 135°13'0 0.0
2018-Apr-24 02:30N 34°41' E 135°13'0 0.0
2018-Apr-24 02:00N 34°41' E 135°13'0 0.0
2018-Apr-24 01:30N 34°41' E 135°13'0 0.0
2018-Apr-24 01:00N 34°41' E 135°13'0 0.0
2018-Apr-24 00:30N 34°41' E 135°13'0 0.0
2018-Apr-24 00:00N 34°41' E 135°13'0 0.0
2018-Apr-23 23:30N 34°41' E 135°13'3 6.7
2018-Apr-23 23:01N 34°38' E 135°16'917.4
2018-Apr-23 22:30N 34°35' E 135°06'917.7
2018-Apr-23 22:01N 34°36' E 134°56'917.4
2018-Apr-23 21:30N 34°32' E 134°46'917.5
2018-Apr-23 21:00N 34°28' E 134°37'918.3
2018-Apr-23 20:31N 34°25' E 134°26'1019.5
2018-Apr-23 20:00N 34°24' E 134°15'917.5
2018-Apr-23 19:30N 34°26' E 134°04'2112.8
2018-Apr-23 17:52N 34°18' E 133°41'4915.8
2018-Apr-23 14:44N 34°00' E 132°45'417.9
2018-Apr-23 14:30N 33°57' E 132°42'917.7
2018-Apr-23 13:59N 33°51' E 132°34'1417.8
2018-Apr-23 13:12N 33°44' E 132°19'418.1
2018-Apr-23 13:00N 33°43' E 132°15'1417.1
2018-Apr-23 12:13N 33°43' E 131°59'417.1
2018-Apr-23 12:00N 33°43' E 131°54'917.6
2018-Apr-23 11:30N 33°45' E 131°44'917.7
2018-Apr-23 11:00N 33°47' E 131°34'917.8
2018-Apr-23 10:30N 33°48' E 131°23'918.0
2018-Apr-23 10:00N 33°49' E 131°13'816.6
2018-Apr-23 09:30N 33°48' E 131°03'3 5.2
2018-Apr-23 08:59N 33°46' E 131°00'0 0.0
2018-Apr-23 08:29N 33°46' E 131°00'0 0.0
2018-Apr-23 07:59N 33°46' E 131°00'0 0.0
2018-Apr-23 07:29N 33°46' E 131°00'0 0.0
2018-Apr-23 06:59N 33°46' E 131°00'0 0.0
2018-Apr-23 06:29N 33°46' E 131°00'0 0.0
2018-Apr-23 05:59N 33°46' E 131°00'0 0.0
2018-Apr-23 05:26N 33°46' E 131°00'0 0.0
2018-Apr-23 04:59N 33°46' E 131°00'0 0.0
2018-Apr-23 04:29N 33°46' E 131°00'0 0.0
2018-Apr-23 03:59N 33°46' E 131°00'0 0.0
2018-Apr-23 03:29N 33°46' E 131°00'0 0.0
2018-Apr-23 02:59N 33°46' E 131°00'0 0.0
2018-Apr-23 02:29N 33°46' E 131°00'0 0.0
2018-Apr-23 01:59N 33°46' E 131°00'0 0.0
2018-Apr-23 01:29N 33°46' E 131°00'0 0.0
2018-Apr-23 00:59N 33°46' E 131°00'0 0.0
2018-Apr-23 00:31N 33°46' E 131°00'0 0.0
2018-Apr-23 00:00N 33°46' E 131°00'2 4.7
2018-Apr-22 23:31N 33°48' E 131°02'917.2
2018-Apr-22 23:00N 33°49' E 131°12'1019.6
2018-Apr-22 22:30N 33°48' E 131°24'919.4
2018-Apr-22 22:01N 33°47' E 131°36'918.8
2018-Apr-22 21:30N 33°45' E 131°47'1018.6
2018-Apr-22 20:59N 33°44' E 131°58'918.2
2018-Apr-22 20:30N 33°42' E 132°09'815.7
2018-Apr-22 19:59N 33°45' E 132°18'918.4
2018-Apr-22 19:29N 33°48' E 132°28'919.0
2018-Apr-22 19:01N 33°54' E 132°36'918.2
2018-Apr-22 18:30N 34°00' E 132°44'5015.5
2018-Apr-22 15:17N 34°20' E 133°40'520.0
2018-Apr-22 15:00N 34°22' E 133°46'815.0
2018-Apr-22 14:29N 34°24' E 133°55'814.2
2018-Apr-22 13:56N 34°27' E 134°04'818.0
2018-Apr-22 13:31N 34°25' E 134°13'1020.6
2018-Apr-22 13:01N 34°26' E 134°25'1020.2
2018-Apr-22 12:31N 34°30' E 134°36'1020.2
2018-Apr-22 12:00N 34°34' E 134°48'1019.3
2018-Apr-22 11:30N 34°37' E 134°59'815.4
2018-Apr-22 11:01N 34°36' E 135°08'714.5
2018-Apr-22 10:30N 34°39' E 135°16'2 4.2
2018-Apr-22 09:59N 34°41' E 135°13'0 0.0
2018-Apr-22 09:30N 34°41' E 135°13'0 0.0
2018-Apr-22 09:00N 34°41' E 135°13'0 0.0
2018-Apr-22 08:30N 34°41' E 135°13'0 0.0
2018-Apr-22 08:00N 34°41' E 135°13'0 0.0
2018-Apr-22 07:30N 34°41' E 135°13'0 0.0
2018-Apr-22 07:00N 34°41' E 135°13'0 0.9
2018-Apr-22 06:30N 34°40' E 135°14'612.1
2018-Apr-22 06:00N 34°34' E 135°14'1020.0
2018-Apr-22 05:30N 34°26' E 135°07'1020.3
2018-Apr-22 05:00N 34°18' E 134°60'1019.8
2018-Apr-22 04:30N 34°08' E 134°60'1020.6
2018-Apr-22 04:00N 33°58' E 135°02'1019.5
2018-Apr-22 03:30N 33°49' E 135°06'6017.4
2018-Apr-22 00:04N 33°36' E 136°16'920.5
2018-Apr-21 23:39N 33°39' E 136°26'720.5
2018-Apr-21 23:19N 33°41' E 136°33'720.4
2018-Apr-21 23:00N 33°43' E 136°41'1120.7
2018-Apr-21 22:29N 33°47' E 136°52'1020.7
2018-Apr-21 22:00N 33°51' E 137°04'1020.8
2018-Apr-21 21:30N 33°56' E 137°15'1220.8
2018-Apr-21 20:57N 33°60' E 137°28'920.2
2018-Apr-21 20:30N 34°04' E 137°38'1119.8
2018-Apr-21 19:58N 34°08' E 137°49'920.1
2018-Apr-21 19:30N 34°12' E 137°60'1019.8
2018-Apr-21 19:00N 34°15' E 138°11'1019.3
2018-Apr-21 18:30N 34°19' E 138°22'919.1
2018-Apr-21 18:00N 34°23' E 138°32'919.0
2018-Apr-21 17:30N 34°27' E 138°43'1019.2
2018-Apr-21 17:00N 34°31' E 138°53'918.0
2018-Apr-21 16:31N 34°36' E 139°02'918.3
2018-Apr-21 15:59N 34°43' E 139°10'918.0
2018-Apr-21 15:30N 34°49' E 139°17'918.1
2018-Apr-21 15:00N 34°56' E 139°25'918.7
2018-Apr-21 14:31N 35°01' E 139°34'1019.2
2018-Apr-21 14:00N 35°07' E 139°43'815.5
2018-Apr-21 13:30N 35°15' E 139°46'611.6
2018-Apr-21 13:00N 35°19' E 139°42'2 3.8
2018-Apr-21 12:28N 35°19' E 139°39'0 0.0
2018-Apr-21 11:58N 35°19' E 139°39'0 0.0
2018-Apr-21 11:28N 35°19' E 139°39'0 0.0
2018-Apr-21 10:58N 35°19' E 139°39'0 0.0
2018-Apr-21 10:28N 35°19' E 139°39'0 0.0
2018-Apr-21 09:58N 35°19' E 139°39'0 0.0
2018-Apr-21 09:28N 35°19' E 139°39'0 0.0
2018-Apr-21 08:58N 35°19' E 139°39'0 0.0
2018-Apr-21 08:28N 35°19' E 139°39'0 0.0
2018-Apr-21 07:58N 35°19' E 139°39'0 0.0
2018-Apr-21 07:28N 35°19' E 139°39'0 0.0
2018-Apr-21 06:58N 35°19' E 139°39'0 0.0
2018-Apr-21 06:28N 35°19' E 139°39'0 0.0
2018-Apr-21 06:00N 35°19' E 139°39'0 0.1
2018-Apr-21 05:31N 35°19' E 139°39'5 9.3
2018-Apr-21 05:00N 35°18' E 139°45'713.7
2018-Apr-21 04:31N 35°11' E 139°47'1019.2
2018-Apr-21 04:00N 35°03' E 139°41'1121.0
2018-Apr-21 03:30N 34°57' E 139°31'1122.1
2018-Apr-21 03:00N 34°50' E 139°20'1122.2
2018-Apr-21 02:30N 34°42' E 139°10'1422.2
2018-Apr-21 01:53N 34°33' E 138°58'1220.9
2018-Apr-21 01:20N 34°27' E 138°46'821.0
2018-Apr-21 00:57N 34°24' E 138°37'1020.4
2018-Apr-21 00:28N 34°20' E 138°26'920.1
2018-Apr-21 00:00N 34°17' E 138°15'1019.9
2018-Apr-20 23:31N 34°13' E 138°04'1119.8
2018-Apr-20 22:57N 34°08' E 137°52'5219.6
2018-Apr-20 20:19N 33°48' E 136°55'719.3
2018-Apr-20 19:56N 33°46' E 136°47'919.4
2018-Apr-20 19:30N 33°42' E 136°38'8319.5
2018-Apr-20 15:14N 33°11' E 135°05'520.5
2018-Apr-20 15:00N 33°09' E 134°60'1120.5
2018-Apr-20 14:28N 33°06' E 134°47'1020.8
2018-Apr-20 14:00N 33°03' E 134°36'11819.0
2018-Apr-20 07:49N 32°55' E 132°16'821.2
2018-Apr-20 07:25N 33°03' E 132°13'1021.5
2018-Apr-20 06:57N 33°11' E 132°06'1022.5
2018-Apr-20 06:29N 33°20' E 131°58'1021.5
2018-Apr-20 06:00N 33°29' E 131°52'1121.6
2018-Apr-20 05:30N 33°38' E 131°46'1121.1
2018-Apr-20 05:00N 33°43' E 131°34'1020.5
2018-Apr-20 04:30N 33°46' E 131°23'1020.1
2018-Apr-20 04:00N 33°48' E 131°11'815.7
2018-Apr-20 03:30N 33°48' E 131°01'2 2.9
2018-Apr-20 02:55N 33°46' E 131°00'0 0.0
2018-Apr-20 02:28N 33°46' E 131°00'0 0.0
2018-Apr-20 01:58N 33°46' E 131°00'0 0.0
2018-Apr-20 01:28N 33°46' E 131°00'0 0.0
2018-Apr-20 00:58N 33°46' E 131°00'0 0.0
2018-Apr-20 00:28N 33°46' E 131°00'0 0.0
2018-Apr-19 23:55N 33°46' E 131°00'0 0.0
2018-Apr-19 23:28N 33°46' E 131°00'0 0.0
2018-Apr-19 22:58N 33°46' E 131°00'0 0.0
2018-Apr-19 22:25N 33°46' E 131°00'0 0.0
2018-Apr-19 21:58N 33°46' E 131°00'0 0.0
2018-Apr-19 21:28N 33°46' E 131°00'0 0.0
2018-Apr-19 21:00N 33°46' E 131°00'0 0.0
2018-Apr-19 20:30N 33°46' E 131°00'2 5.0
2018-Apr-19 20:01N 33°48' E 131°02'816.7
2018-Apr-19 19:31N 33°49' E 131°12'1019.7
2018-Apr-19 19:00N 33°48' E 131°24'1019.5
2018-Apr-19 18:31N 33°46' E 131°36'1019.3
2018-Apr-19 18:01N 33°45' E 131°47'1019.8
2018-Apr-19 17:30N 33°44' E 131°59'1019.5
2018-Apr-19 17:00N 33°43' E 132°11'1120.4
2018-Apr-19 16:28N 33°46' E 132°23'919.9
2018-Apr-19 16:01N 33°51' E 132°33'918.8
2018-Apr-19 15:31N 33°57' E 132°41'917.8
2018-Apr-19 15:00N 34°04' E 132°48'5815.8
2018-Apr-19 11:20N 34°24' E 133°54'513.8
2018-Apr-19 10:59N 34°26' E 133°60'816.7
2018-Apr-19 10:30N 34°26' E 134°09'1019.7
2018-Apr-19 10:00N 34°25' E 134°21'1020.1
2018-Apr-19 09:31N 34°29' E 134°32'1019.7
2018-Apr-19 09:01N 34°33' E 134°44'918.5
2018-Apr-19 08:30N 34°36' E 134°54'612.4
2018-Apr-19 08:00N 34°37' E 135°02'511.0
2018-Apr-19 07:30N 34°37' E 135°08'612.9
2018-Apr-19 07:00N 34°40' E 135°15'2 3.6
2018-Apr-19 06:28N 34°41' E 135°13'0 0.0
2018-Apr-19 05:58N 34°41' E 135°13'0 0.0
2018-Apr-19 05:30N 34°41' E 135°13'0 0.0
2018-Apr-19 05:00N 34°41' E 135°13'0 0.0
2018-Apr-19 04:30N 34°41' E 135°13'0 0.0
2018-Apr-19 04:00N 34°41' E 135°13'2 4.3
2018-Apr-19 03:30N 34°39' E 135°16'917.8
2018-Apr-19 03:00N 34°31' E 135°12'1019.6
2018-Apr-19 02:30N 34°24' E 135°04'1019.6
2018-Apr-19 02:01N 34°15' E 134°59'1020.3
2018-Apr-19 01:31N 34°05' E 135°00'1020.2
2018-Apr-19 01:01N 33°55' E 135°02'1019.0
2018-Apr-19 00:30N 33°47' E 135°09'6717.6
2018-Apr-18 20:42N 33°40' E 136°29'521.4
2018-Apr-18 20:28N 33°42' E 136°35'8520.4
2018-Apr-18 16:19N 34°15' E 138°08'919.9
2018-Apr-18 15:51N 34°19' E 138°18'919.7
2018-Apr-18 15:22N 34°22' E 138°29'819.5
2018-Apr-18 14:57N 34°26' E 138°38'919.9
2018-Apr-18 14:29N 34°29' E 138°48'1020.2
2018-Apr-18 14:00N 34°34' E 138°59'1019.2
2018-Apr-18 13:30N 34°41' E 139°07'1019.7
2018-Apr-18 13:00N 34°48' E 139°15'1019.6
2018-Apr-18 12:30N 34°55' E 139°23'1019.3
2018-Apr-18 12:01N 35°01' E 139°33'1020.1
2018-Apr-18 11:31N 35°07' E 139°42'816.3
2018-Apr-18 11:00N 35°14' E 139°46'612.4
2018-Apr-18 10:30N 35°19' E 139°41'2 3.5
2018-Apr-18 09:58N 35°19' E 139°39'0 0.0
2018-Apr-18 09:28N 35°19' E 139°39'0 0.0
2018-Apr-18 08:58N 35°19' E 139°39'0 0.0
2018-Apr-18 08:28N 35°19' E 139°39'0 0.0
2018-Apr-18 07:58N 35°19' E 139°39'0 0.0
2018-Apr-18 07:28N 35°19' E 139°39'0 0.0
2018-Apr-18 06:58N 35°19' E 139°39'0 0.0
2018-Apr-18 06:28N 35°19' E 139°39'0 0.0
2018-Apr-18 05:58N 35°19' E 139°39'0 0.0
2018-Apr-18 05:28N 35°19' E 139°39'0 0.0
2018-Apr-18 04:58N 35°19' E 139°39'0 0.0
2018-Apr-18 04:28N 35°19' E 139°39'0 0.0
2018-Apr-18 04:01N 35°19' E 139°39'0 0.2
2018-Apr-18 03:30N 35°19' E 139°39'510.9
2018-Apr-18 03:00N 35°17' E 139°45'714.2
2018-Apr-18 02:30N 35°10' E 139°47'917.9
2018-Apr-18 02:00N 35°03' E 139°40'1019.5
2018-Apr-18 01:30N 34°57' E 139°30'1019.5
2018-Apr-18 01:00N 34°51' E 139°21'919.2
2018-Apr-18 00:30N 34°45' E 139°12'1618.3
2018-Apr-17 23:39N 34°34' E 138°58'317.8
2018-Apr-17 23:30N 34°32' E 138°56'1118.0
2018-Apr-17 22:53N 34°27' E 138°44'718.5
2018-Apr-17 22:30N 34°25' E 138°36'1018.2
2018-Apr-17 21:57N 34°21' E 138°25'817.4
2018-Apr-17 21:29N 34°18' E 138°16'14917.8
2018-Apr-17 13:04N 33°33' E 135°24'919.9
2018-Apr-17 12:38N 33°40' E 135°16'820.2
2018-Apr-17 12:14N 33°46' E 135°10'520.7
2018-Apr-17 12:01N 33°49' E 135°06'1020.0
2018-Apr-17 11:30N 33°58' E 135°00'1019.9
2018-Apr-17 11:00N 34°08' E 134°58'1019.4
2018-Apr-17 10:31N 34°17' E 134°58'918.6
2018-Apr-17 10:01N 34°25' E 135°04'1020.5
2018-Apr-17 09:31N 34°32' E 135°13'815.0
2018-Apr-17 09:00N 34°40' E 135°15'2 3.5
2018-Apr-17 08:28N 34°41' E 135°13'0 0.0
2018-Apr-17 07:58N 34°41' E 135°13'0 0.0
2018-Apr-17 07:28N 34°41' E 135°13'0 0.0
2018-Apr-17 06:58N 34°41' E 135°13'0 0.0
2018-Apr-17 06:29N 34°41' E 135°13'0 0.0
2018-Apr-17 05:58N 34°41' E 135°13'0 0.0
2018-Apr-17 05:29N 34°41' E 135°13'0 0.0
2018-Apr-17 04:59N 34°41' E 135°13'0 0.0
2018-Apr-17 04:28N 34°41' E 135°13'0 0.0
2018-Apr-17 03:58N 34°41' E 135°13'0 0.0
2018-Apr-17 03:29N 34°41' E 135°13'0 0.0
2018-Apr-17 03:00N 34°41' E 135°13'3 6.2
2018-Apr-17 02:31N 34°38' E 135°16'918.4
2018-Apr-17 02:01N 34°35' E 135°06'917.5
2018-Apr-17 01:30N 34°35' E 134°55'918.8
2018-Apr-17 01:00N 34°32' E 134°45'1019.6
2018-Apr-17 00:30N 34°28' E 134°34'1019.7
2018-Apr-17 00:00N 34°24' E 134°23'918.3
2018-Apr-16 23:30N 34°25' E 134°11'2614.5
2018-Apr-16 21:42N 34°18' E 133°41'4416.2
2018-Apr-16 19:00N 34°05' E 132°50'918.4
2018-Apr-16 18:30N 33°58' E 132°44'917.7
2018-Apr-16 17:59N 33°52' E 132°36'918.3
2018-Apr-16 17:30N 33°47' E 132°27'918.6
2018-Apr-16 16:59N 33°43' E 132°16'918.9
2018-Apr-16 16:30N 33°41' E 132°05'1020.0
2018-Apr-16 16:00N 33°44' E 131°54'1020.9
2018-Apr-16 15:30N 33°46' E 131°41'1121.1
2018-Apr-16 15:00N 33°48' E 131°29'1020.8
2018-Apr-16 14:30N 33°49' E 131°17'1019.3
2018-Apr-16 14:00N 33°49' E 131°05'5 9.0
2018-Apr-16 13:29N 33°46' E 131°00'0 0.0
2018-Apr-16 12:59N 33°46' E 131°00'0 0.0
2018-Apr-16 12:26N 33°46' E 131°00'0 0.0
2018-Apr-16 11:59N 33°46' E 131°00'0 0.0
2018-Apr-16 11:29N 33°46' E 131°00'0 0.0
2018-Apr-16 10:59N 33°46' E 131°00'0 0.0
2018-Apr-16 10:29N 33°46' E 131°00'0 0.0
2018-Apr-16 09:59N 33°46' E 131°00'0 0.0
2018-Apr-16 09:29N 33°46' E 131°00'0 0.0
2018-Apr-16 08:59N 33°46' E 131°00'0 0.0
2018-Apr-16 08:29N 33°46' E 131°00'0 0.0
2018-Apr-16 07:59N 33°46' E 131°00'0 0.0
2018-Apr-16 07:29N 33°46' E 131°00'0 0.0
2018-Apr-16 06:56N 33°46' E 131°00'0 0.0
2018-Apr-16 06:26N 33°46' E 131°00'0 0.0
2018-Apr-16 06:00N 33°46' E 131°00'0 0.0
2018-Apr-16 05:30N 33°46' E 131°00'2 3.8
2018-Apr-16 05:00N 33°48' E 131°02'816.3
2018-Apr-16 04:30N 33°49' E 131°11'1019.7
2018-Apr-16 04:00N 33°48' E 131°23'1019.5
2018-Apr-16 03:30N 33°47' E 131°35'1019.5
2018-Apr-16 03:00N 33°46' E 131°46'1019.9
2018-Apr-16 02:30N 33°44' E 131°58'1120.0
2018-Apr-16 01:57N 33°43' E 132°12'920.7
2018-Apr-16 01:29N 33°46' E 132°22'1020.4
2018-Apr-16 01:00N 33°50' E 132°33'919.2
2018-Apr-16 00:30N 33°57' E 132°41'918.6
2018-Apr-16 00:00N 34°04' E 132°48'6716.6
2018-Apr-15 19:57N 34°27' E 134°05'919.7
2018-Apr-15 19:30N 34°25' E 134°15'1019.7
2018-Apr-15 19:01N 34°27' E 134°26'1020.2
2018-Apr-15 18:30N 34°30' E 134°38'1019.5
2018-Apr-15 18:00N 34°34' E 134°49'917.9
2018-Apr-15 17:30N 34°38' E 134°59'816.7
2018-Apr-15 17:00N 34°37' E 135°09'611.8
2018-Apr-15 16:30N 34°40' E 135°15'1 2.9
2018-Apr-15 16:00N 34°41' E 135°13'0 0.0
2018-Apr-15 15:30N 34°41' E 135°13'0 0.0
2018-Apr-15 15:00N 34°41' E 135°13'0 0.0
2018-Apr-15 14:30N 34°41' E 135°13'0 0.0
2018-Apr-15 14:00N 34°41' E 135°13'0 0.0
2018-Apr-15 13:30N 34°41' E 135°13'0 0.0
2018-Apr-15 13:00N 34°41' E 135°13'0 0.0
2018-Apr-15 12:30N 34°41' E 135°13'1 1.4
2018-Apr-15 12:00N 34°40' E 135°14'713.6
2018-Apr-15 11:30N 34°34' E 135°14'1019.2
2018-Apr-15 11:00N 34°26' E 135°07'918.6
2018-Apr-15 10:31N 34°19' E 134°60'918.9
2018-Apr-15 10:00N 34°10' E 134°59'919.0
2018-Apr-15 09:30N 34°00' E 134°60'918.5
2018-Apr-15 09:00N 33°51' E 135°01'1018.3
2018-Apr-15 08:29N 33°43' E 135°08'1018.2
2018-Apr-15 07:55N 33°36' E 135°17'718.3
2018-Apr-15 07:30N 33°31' E 135°24'4915.8
2018-Apr-15 04:23N 33°47' E 136°20'2417.8
2018-Apr-15 03:01N 34°01' E 136°44'117.0
2018-Apr-15 02:58N 34°01' E 136°45'3516.0
2018-Apr-15 00:48N 34°18' E 137°21'514.7
2018-Apr-15 00:28N 34°20' E 137°27'914.2
2018-Apr-14 23:48N 34°24' E 137°38'17 9.3
2018-Apr-14 21:57N 34°31' E 137°56'714.1
2018-Apr-14 21:27N 34°32' E 138°05'815.5
2018-Apr-14 20:57N 34°31' E 138°14'716.3
2018-Apr-14 20:29N 34°32' E 138°23'916.6
2018-Apr-14 19:59N 34°32' E 138°33'817.1
2018-Apr-14 19:30N 34°32' E 138°43'917.5
2018-Apr-14 19:00N 34°32' E 138°54'816.0
2018-Apr-14 18:30N 34°37' E 139°02'1017.4
2018-Apr-14 17:54N 34°45' E 139°09'717.2
2018-Apr-14 17:30N 34°50' E 139°15'816.6
2018-Apr-14 17:00N 34°55' E 139°23'917.2
2018-Apr-14 16:29N 35°00' E 139°32'  

Dump ship's entire track history